Arlington, Massachusetts
Current Conditions -  °F | °C
As of 2:56 AM on Monday 22 Dec 2014 (Local Time) from KBED Reporting Station
Overcast Overcast  
Wind Chill: 31°   Ceiling: 1200
Heat Index: 31°   Visibility: 10mi
Dew Point: 26°   Wind: 3mph
Humidity: 82%   Direction: 310°NW
Pressure: 30.35"   Gusts: NA
Location:  42.42°N, 71.16°W
Report Text: KBED 220756Z AUTO 31003KT 10SM OVC012 M01/M03 A3035 RMK AO2 SLP293 T10061033 TSNO
Loading
Personal Weather Stations






























Interactive Weather Map New forecast layout! Learn more

10-Day Weather Forecast

Advertisements
Track Severe Weather on mobile